sensor_id;sensor_type;location;lat;lon;timestamp;pressure;altitude;pressure_sealevel;temperature;humidity
30856;BME280;17570;0.000;0.000;2022-12-29T00:02:09;97917.20;;;14.16;40.47
30856;BME280;17570;0.000;0.000;2022-12-29T00:04:36;97920.77;;;14.15;40.46
30856;BME280;17570;0.000;0.000;2022-12-29T00:07:04;97920.63;;;14.17;40.50
30856;BME280;17570;0.000;0.000;2022-12-29T00:09:32;97917.20;;;14.16;40.68
30856;BME280;17570;0.000;0.000;2022-12-29T00:12:00;97921.59;;;14.16;40.68
30856;BME280;17570;0.000;0.000;2022-12-29T00:14:28;97929.55;;;14.14;40.69
30856;BME280;17570;0.000;0.000;2022-12-29T00:17:13;97927.64;;;14.16;40.71
30856;BME280;17570;0.000;0.000;2022-12-29T00:19:41;97933.71;;;14.06;41.16
30856;BME280;17570;0.000;0.000;2022-12-29T00:22:26;97934.18;;;14.11;40.61
30856;BME280;17570;0.000;0.000;2022-12-29T00:25:12;97934.89;;;14.01;40.88
30856;BME280;17570;0.000;0.000;2022-12-29T00:27:58;97937.03;;;13.96;41.23
30856;BME280;17570;0.000;0.000;2022-12-29T00:30:43;97943.31;;;13.94;41.10
30856;BME280;17570;0.000;0.000;2022-12-29T00:33:29;97940.83;;;13.92;41.13
30856;BME280;17570;0.000;0.000;2022-12-29T00:39:03;97947.00;;;13.91;41.14
30856;BME280;17570;0.000;0.000;2022-12-29T00:41:45;97942.73;;;14.01;41.02
30856;BME280;17570;0.000;0.000;2022-12-29T00:44:30;97951.75;;;13.86;41.06
30856;BME280;17570;0.000;0.000;2022-12-29T00:46:58;97944.52;;;13.90;40.86
30856;BME280;17570;0.000;0.000;2022-12-29T00:49:27;97947.59;;;14.06;40.56
30856;BME280;17570;0.000;0.000;2022-12-29T00:52:08;97942.97;;;14.10;40.52
30856;BME280;17570;0.000;0.000;2022-12-29T00:54:39;97949.71;;;14.12;40.57
30856;BME280;17570;0.000;0.000;2022-12-29T00:57:07;97949.38;;;14.06;40.72
30856;BME280;17570;0.000;0.000;2022-12-29T00:59:35;97951.76;;;14.09;40.76
30856;BME280;17570;0.000;0.000;2022-12-29T01:02:02;97956.98;;;14.09;40.74
30856;BME280;17570;0.000;0.000;2022-12-29T01:04:30;97947.36;;;14.09;40.73
30856;BME280;17570;0.000;0.000;2022-12-29T01:06:58;97948.66;;;14.15;40.73
30856;BME280;17570;0.000;0.000;2022-12-29T01:09:25;97951.97;;;14.17;40.82
30856;BME280;17570;0.000;0.000;2022-12-29T01:12:11;97951.14;;;14.16;40.54
30856;BME280;17570;0.000;0.000;2022-12-29T01:14:39;97955.30;;;14.08;40.75
30856;BME280;17570;0.000;0.000;2022-12-29T01:17:06;97947.46;;;14.08;40.55
30856;BME280;17570;0.000;0.000;2022-12-29T01:19:34;97947.93;;;14.13;40.28
30856;BME280;17570;0.000;0.000;2022-12-29T01:22:01;97947.70;;;14.16;40.55
30856;BME280;17570;0.000;0.000;2022-12-29T01:24:29;97941.78;;;14.14;40.42
30856;BME280;17570;0.000;0.000;2022-12-29T01:26:56;97938.09;;;14.16;40.42
30856;BME280;17570;0.000;0.000;2022-12-29T01:29:23;97929.42;;;14.16;40.34
30856;BME280;17570;0.000;0.000;2022-12-29T01:31:51;97929.42;;;14.16;40.28
30856;BME280;17570;0.000;0.000;2022-12-29T01:34:18;97926.95;;;14.14;40.45
30856;BME280;17570;0.000;0.000;2022-12-29T01:36:46;97923.25;;;14.17;40.36
30856;BME280;17570;0.000;0.000;2022-12-29T01:39:13;97922.55;;;14.15;40.51
30856;BME280;17570;0.000;0.000;2022-12-29T01:41:41;97912.80;;;14.17;40.45
30856;BME280;17570;0.000;0.000;2022-12-29T01:46:54;97903.19;;;14.17;40.32
30856;BME280;17570;0.000;0.000;2022-12-29T01:49:23;97904.86;;;14.07;40.80
30856;BME280;17570;0.000;0.000;2022-12-29T01:51:53;97893.37;;;14.10;40.88
30856;BME280;17570;0.000;0.000;2022-12-29T01:54:27;97881.83;;;14.12;40.75
30856;BME280;17570;0.000;0.000;2022-12-29T01:56:56;97884.34;;;14.14;40.51
30856;BME280;17570;0.000;0.000;2022-12-29T01:59:25;97874.13;;;14.11;40.85
30856;BME280;17570;0.000;0.000;2022-12-29T02:01:55;97860.13;;;14.12;40.73
30856;BME280;17570;0.000;0.000;2022-12-29T02:04:23;97860.39;;;14.09;40.84
30856;BME280;17570;0.000;0.000;2022-12-29T02:06:53;97863.55;;;14.12;40.77
30856;BME280;17570;0.000;0.000;2022-12-29T02:09:21;97858.93;;;14.16;40.95
30856;BME280;17570;0.000;0.000;2022-12-29T02:11:50;97863.69;;;14.11;40.64
30856;BME280;17570;0.000;0.000;2022-12-29T02:14:18;97862.63;;;14.13;40.56
30856;BME280;17570;0.000;0.000;2022-12-29T02:22:12;97858.60;;;14.09;40.69
30856;BME280;17570;0.000;0.000;2022-12-29T02:24:49;97854.70;;;14.03;40.81
30856;BME280;17570;0.000;0.000;2022-12-29T02:35:29;97850.20;;;13.94;41.18
30856;BME280;17570;0.000;0.000;2022-12-29T02:38:19;97848.06;;;13.99;40.95
30856;BME280;17570;0.000;0.000;2022-12-29T02:40:43;97844.13;;;13.94;40.70
30856;BME280;17570;0.000;0.000;2022-12-29T02:43:24;97844.03;;;13.84;40.93
30856;BME280;17570;0.000;0.000;2022-12-29T02:46:09;97848.89;;;13.89;40.84
30856;BME280;17570;0.000;0.000;2022-12-29T02:51:27;97832.89;;;13.82;40.75
30856;BME280;17570;0.000;0.000;2022-12-29T02:53:42;97838.25;;;13.81;40.80
30856;BME280;17570;0.000;0.000;2022-12-29T02:56:28;97836.69;;;13.78;40.83
30856;BME280;17570;0.000;0.000;2022-12-29T02:58:56;97829.81;;;13.66;40.75
30856;BME280;17570;0.000;0.000;2022-12-29T03:09:17;97833.87;;;13.59;40.65
30856;BME280;17570;0.000;0.000;2022-12-29T03:20:07;97819.17;;;13.35;40.96
30856;BME280;17570;0.000;0.000;2022-12-29T03:22:41;97813.95;;;13.35;40.90
30856;BME280;17570;0.000;0.000;2022-12-29T03:27:49;97826.77;;;13.38;40.44
30856;BME280;17570;0.000;0.000;2022-12-29T03:30:14;97820.22;;;13.33;40.35
30856;BME280;17570;0.000;0.000;2022-12-29T03:32:48;97821.53;;;13.27;40.44
30856;BME280;17570;0.000;0.000;2022-12-29T03:35:13;97827.70;;;13.26;40.45
30856;BME280;17570;0.000;0.000;2022-12-29T03:40:28;97824.80;;;13.18;40.51
30856;BME280;17570;0.000;0.000;2022-12-29T03:42:59;97823.24;;;13.04;40.62
30856;BME280;17570;0.000;0.000;2022-12-29T03:45:29;97823.97;;;13.06;40.47
30856;BME280;17570;0.000;0.000;2022-12-29T03:47:57;97826.45;;;13.08;40.36
30856;BME280;17570;0.000;0.000;2022-12-29T03:50:25;97832.62;;;13.07;40.11
30856;BME280;17570;0.000;0.000;2022-12-29T03:52:53;97831.89;;;13.05;40.39
30856;BME280;17570;0.000;0.000;2022-12-29T03:55:22;97833.67;;;13.04;40.20
30856;BME280;17570;0.000;0.000;2022-12-29T03:57:49;97832.48;;;12.97;40.06
30856;BME280;17570;0.000;0.000;2022-12-29T04:00:19;97839.57;;;12.95;40.09
30856;BME280;17570;0.000;0.000;2022-12-29T04:02:48;97837.31;;;12.90;40.10
30856;BME280;17570;0.000;0.000;2022-12-29T04:05:17;97836.70;;;12.87;40.17
30856;BME280;17570;0.000;0.000;2022-12-29T04:07:48;97837.05;;;12.82;40.23
30856;BME280;17570;0.000;0.000;2022-12-29T04:10:15;97840.73;;;12.80;40.10
30856;BME280;17570;0.000;0.000;2022-12-29T04:12:44;97841.77;;;12.77;40.03
30856;BME280;17570;0.000;0.000;2022-12-29T04:15:13;97842.23;;;12.71;40.12
30856;BME280;17570;0.000;0.000;2022-12-29T04:17:41;97846.83;;;12.67;39.92
30856;BME280;17570;0.000;0.000;2022-12-29T04:20:08;97847.91;;;12.65;39.80
30856;BME280;17570;0.000;0.000;2022-12-29T04:23:02;97853.45;;;12.60;39.93
30856;BME280;17570;0.000;0.000;2022-12-29T04:25:31;97853.63;;;12.46;40.20
30856;BME280;17570;0.000;0.000;2022-12-29T04:27:59;97851.36;;;12.41;40.24
30856;BME280;17570;0.000;0.000;2022-12-29T04:30:41;97847.81;;;12.42;40.13
30856;BME280;17570;0.000;0.000;2022-12-29T04:33:11;97856.99;;;12.35;40.12
30856;BME280;17570;0.000;0.000;2022-12-29T04:35:39;97865.75;;;12.34;39.87
30856;BME280;17570;0.000;0.000;2022-12-29T04:38:09;97865.75;;;12.34;40.00
30856;BME280;17570;0.000;0.000;2022-12-29T04:40:42;97864.92;;;12.34;39.98
30856;BME280;17570;0.000;0.000;2022-12-29T04:43:06;97872.86;;;12.32;39.82
30856;BME280;17570;0.000;0.000;2022-12-29T04:45:36;97866.91;;;12.30;39.90
30856;BME280;17570;0.000;0.000;2022-12-29T04:48:05;97869.75;;;12.27;39.89
30856;BME280;17570;0.000;0.000;2022-12-29T04:50:46;97866.66;;;12.22;39.93
30856;BME280;17570;0.000;0.000;2022-12-29T04:53:15;97869.67;;;12.16;39.80
30856;BME280;17570;0.000;0.000;2022-12-29T04:55:43;97871.77;;;12.11;39.90
30856;BME280;17570;0.000;0.000;2022-12-29T04:58:11;97880.53;;;12.10;39.78
30856;BME280;17570;0.000;0.000;2022-12-29T05:00:40;97879.82;;;12.08;40.02
30856;BME280;17570;0.000;0.000;2022-12-29T05:03:09;97880.64;;;12.08;39.92
30856;BME280;17570;0.000;0.000;2022-12-29T05:05:39;97880.97;;;12.04;40.15
30856;BME280;17570;0.000;0.000;2022-12-29T05:08:06;97878.58;;;12.00;40.21
30856;BME280;17570;0.000;0.000;2022-12-29T05:10:34;97881.56;;;12.07;40.14
30856;BME280;17570;0.000;0.000;2022-12-29T05:13:03;97880.03;;;12.05;40.03
30856;BME280;17570;0.000;0.000;2022-12-29T05:15:31;97884.73;;;11.99;40.12
30856;BME280;17570;0.000;0.000;2022-12-29T05:18:13;97886.38;;;12.00;40.31
30856;BME280;17570;0.000;0.000;2022-12-29T05:20:41;97885.44;;;12.02;40.41
30856;BME280;17570;0.000;0.000;2022-12-29T05:23:09;97895.66;;;11.92;40.58
30856;BME280;17570;0.000;0.000;2022-12-29T05:25:37;97892.03;;;11.94;40.62
30856;BME280;17570;0.000;0.000;2022-12-29T05:28:12;97884.22;;;11.94;40.60
30856;BME280;17570;0.000;0.000;2022-12-29T05:30:51;97886.64;;;11.85;40.47
30856;BME280;17570;0.000;0.000;2022-12-29T05:33:19;97892.02;;;11.82;40.34
30856;BME280;17570;0.000;0.000;2022-12-29T05:35:48;97891.92;;;11.83;40.33
30856;BME280;17570;0.000;0.000;2022-12-29T05:38:17;97902.41;;;11.82;40.12
30856;BME280;17570;0.000;0.000;2022-12-29T05:40:44;97888.52;;;11.57;40.48
30856;BME280;17570;0.000;0.000;2022-12-29T05:43:14;97891.94;;;11.70;40.31
30856;BME280;17570;0.000;0.000;2022-12-29T05:46:01;97894.93;;;11.77;40.28
30856;BME280;17570;0.000;0.000;2022-12-29T05:48:37;97894.86;;;11.66;40.41
30856;BME280;17570;0.000;0.000;2022-12-29T05:54:37;97890.80;;;11.62;40.18
30856;BME280;17570;0.000;0.000;2022-12-29T05:57:06;97898.36;;;11.14;41.36
30856;BME280;17570;0.000;0.000;2022-12-29T05:59:34;97899.34;;;11.38;40.59
30856;BME280;17570;0.000;0.000;2022-12-29T06:02:02;97902.12;;;11.35;40.76
30856;BME280;17570;0.000;0.000;2022-12-29T06:04:30;97906.39;;;11.36;40.51
30856;BME280;17570;0.000;0.000;2022-12-29T06:06:57;97899.63;;;11.46;40.30
30856;BME280;17570;0.000;0.000;2022-12-29T06:09:35;97912.31;;;11.51;40.40
30856;BME280;17570;0.000;0.000;2022-12-29T06:12:04;97912.20;;;11.78;39.93
30856;BME280;17570;0.000;0.000;2022-12-29T06:14:32;97918.88;;;11.82;39.63
30856;BME280;17570;0.000;0.000;2022-12-29T06:17:01;97922.08;;;11.73;39.45
30856;BME280;17570;0.000;0.000;2022-12-29T06:19:29;97926.66;;;11.31;40.46
30856;BME280;17570;0.000;0.000;2022-12-29T06:21:57;97927.93;;;11.38;40.45
30856;BME280;17570;0.000;0.000;2022-12-29T06:24:24;97925.41;;;11.37;40.75
30856;BME280;17570;0.000;0.000;2022-12-29T06:26:52;97930.22;;;11.43;40.83
30856;BME280;17570;0.000;0.000;2022-12-29T06:29:21;97927.31;;;11.47;40.78
30856;BME280;17570;0.000;0.000;2022-12-29T06:31:48;97923.66;;;11.50;40.66
30856;BME280;17570;0.000;0.000;2022-12-29T06:34:17;97921.77;;;11.65;40.22
30856;BME280;17570;0.000;0.000;2022-12-29T06:36:45;97921.37;;;11.84;40.04
30856;BME280;17570;0.000;0.000;2022-12-29T06:39:14;97923.56;;;11.90;40.19
30856;BME280;17570;0.000;0.000;2022-12-29T06:41:43;97928.85;;;11.88;40.08
30856;BME280;17570;0.000;0.000;2022-12-29T06:44:31;97928.97;;;11.87;40.37
30856;BME280;17570;0.000;0.000;2022-12-29T06:47:03;97931.46;;;11.75;40.83
30856;BME280;17570;0.000;0.000;2022-12-29T06:49:30;97930.41;;;11.78;40.76
30856;BME280;17570;0.000;0.000;2022-12-29T06:51:58;97931.89;;;11.82;40.68
30856;BME280;17570;0.000;0.000;2022-12-29T06:54:27;97939.45;;;11.47;41.50
30856;BME280;17570;0.000;0.000;2022-12-29T06:56:54;97935.20;;;11.84;41.14
30856;BME280;17570;0.000;0.000;2022-12-29T06:59:22;97937.70;;;11.98;41.01
30856;BME280;17570;0.000;0.000;2022-12-29T07:01:49;97938.10;;;12.05;40.73
30856;BME280;17570;0.000;0.000;2022-12-29T07:04:17;97941.00;;;12.13;40.81
30856;BME280;17570;0.000;0.000;2022-12-29T07:06:44;97933.08;;;12.15;40.98
30856;BME280;17570;0.000;0.000;2022-12-29T07:09:11;97947.22;;;12.23;40.84
30856;BME280;17570;0.000;0.000;2022-12-29T07:11:39;97937.94;;;12.32;40.66
30856;BME280;17570;0.000;0.000;2022-12-29T07:14:06;97936.78;;;12.36;40.62
30856;BME280;17570;0.000;0.000;2022-12-29T07:16:34;97938.94;;;12.42;40.71
30856;BME280;17570;0.000;0.000;2022-12-29T07:19:01;97941.92;;;12.49;40.67
30856;BME280;17570;0.000;0.000;2022-12-29T07:21:29;97944.81;;;12.57;40.50
30856;BME280;17570;0.000;0.000;2022-12-29T07:23:56;97939.40;;;12.60;40.72
30856;BME280;17570;0.000;0.000;2022-12-29T07:26:24;97940.02;;;12.64;40.79
30856;BME280;17570;0.000;0.000;2022-12-29T07:28:51;97942.05;;;12.71;40.94
30856;BME280;17570;0.000;0.000;2022-12-29T07:31:20;97944.31;;;12.76;40.85
30856;BME280;17570;0.000;0.000;2022-12-29T07:33:48;97942.20;;;12.81;40.61
30856;BME280;17570;0.000;0.000;2022-12-29T07:36:16;97942.94;;;12.83;40.65
30856;BME280;17570;0.000;0.000;2022-12-29T07:38:44;97950.52;;;12.86;40.73
30856;BME280;17570;0.000;0.000;2022-12-29T07:41:11;97944.14;;;12.90;40.69
30856;BME280;17570;0.000;0.000;2022-12-29T07:43:39;97943.92;;;12.93;40.74
30856;BME280;17570;0.000;0.000;2022-12-29T07:46:24;97951.83;;;13.16;42.53
30856;BME280;17570;0.000;0.000;2022-12-29T07:48:51;97950.36;;;13.24;42.93
30856;BME280;17570;0.000;0.000;2022-12-29T07:51:19;97942.67;;;13.34;41.99
30856;BME280;17570;0.000;0.000;2022-12-29T07:53:46;97946.72;;;13.38;41.73
30856;BME280;17570;0.000;0.000;2022-12-29T07:56:14;97942.33;;;13.39;41.52
30856;BME280;17570;0.000;0.000;2022-12-29T07:58:41;97941.25;;;13.41;41.35
30856;BME280;17570;0.000;0.000;2022-12-29T08:01:09;97945.03;;;13.37;41.54
30856;BME280;17570;0.000;0.000;2022-12-29T08:03:36;97939.94;;;13.36;41.36
30856;BME280;17570;0.000;0.000;2022-12-29T08:06:04;97946.59;;;13.40;41.15
30856;BME280;17570;0.000;0.000;2022-12-29T08:08:31;97943.03;;;13.41;41.07
30856;BME280;17570;0.000;0.000;2022-12-29T08:10:59;97948.13;;;13.42;41.23
30856;BME280;17570;0.000;0.000;2022-12-29T08:13:26;97942.20;;;13.40;41.22
30856;BME280;17570;0.000;0.000;2022-12-29T08:15:54;97942.91;;;13.42;41.05
30856;BME280;17570;0.000;0.000;2022-12-29T08:18:23;97948.73;;;13.46;41.02
30856;BME280;17570;0.000;0.000;2022-12-29T08:20:50;97944.47;;;13.45;40.81
30856;BME280;17570;0.000;0.000;2022-12-29T08:23:18;97950.98;;;13.50;40.68
30856;BME280;17570;0.000;0.000;2022-12-29T08:25:45;97948.16;;;13.53;40.60
30856;BME280;17570;0.000;0.000;2022-12-29T08:28:13;97944.47;;;13.56;40.92
30856;BME280;17570;0.000;0.000;2022-12-29T08:30:40;97943.30;;;13.60;40.81
30856;BME280;17570;0.000;0.000;2022-12-29T08:33:08;97942.25;;;13.63;40.72
30856;BME280;17570;0.000;0.000;2022-12-29T08:35:35;97931.81;;;13.63;40.66
30856;BME280;17570;0.000;0.000;2022-12-29T08:38:03;97931.33;;;13.69;40.63
30856;BME280;17570;0.000;0.000;2022-12-29T08:40:30;97930.16;;;13.73;40.54
30856;BME280;17570;0.000;0.000;2022-12-29T08:42:58;97927.67;;;13.71;40.65
30856;BME280;17570;0.000;0.000;2022-12-29T08:45:25;97925.89;;;13.72;40.58
30856;BME280;17570;0.000;0.000;2022-12-29T08:47:53;97917.58;;;13.78;40.84
30856;BME280;17570;0.000;0.000;2022-12-29T08:50:21;97923.78;;;12.95;40.30
30856;BME280;17570;0.000;0.000;2022-12-29T08:52:48;97931.28;;;10.61;45.70
30856;BME280;17570;0.000;0.000;2022-12-29T08:55:16;97926.78;;;10.50;47.07
30856;BME280;17570;0.000;0.000;2022-12-29T08:57:44;97919.05;;;11.79;48.65
30856;BME280;17570;0.000;0.000;2022-12-29T09:00:19;97911.41;;;13.68;49.40
30856;BME280;17570;0.000;0.000;2022-12-29T09:02:47;97904.39;;;14.68;48.21
30856;BME280;17570;0.000;0.000;2022-12-29T09:05:14;97898.97;;;15.13;47.11
30856;BME280;17570;0.000;0.000;2022-12-29T09:07:42;97896.67;;;15.40;46.29
30856;BME280;17570;0.000;0.000;2022-12-29T09:10:09;97897.16;;;15.55;47.13
30856;BME280;17570;0.000;0.000;2022-12-29T09:12:37;97884.01;;;15.66;46.68
30856;BME280;17570;0.000;0.000;2022-12-29T09:15:05;97884.58;;;15.70;46.20
30856;BME280;17570;0.000;0.000;2022-12-29T09:17:33;97881.43;;;15.76;45.83
30856;BME280;17570;0.000;0.000;2022-12-29T09:20:13;97873.75;;;15.84;46.13
30856;BME280;17570;0.000;0.000;2022-12-29T09:22:41;97877.51;;;15.91;45.68
30856;BME280;17570;0.000;0.000;2022-12-29T09:25:09;97872.16;;;16.02;45.27
30856;BME280;17570;0.000;0.000;2022-12-29T09:27:37;97868.48;;;16.15;44.60
30856;BME280;17570;0.000;0.000;2022-12-29T09:30:06;97861.46;;;16.25;43.06
30856;BME280;17570;0.000;0.000;2022-12-29T09:32:34;97861.06;;;16.39;42.41
30856;BME280;17570;0.000;0.000;2022-12-29T09:35:02;97853.92;;;16.51;41.94
30856;BME280;17570;0.000;0.000;2022-12-29T09:37:29;97852.23;;;16.59;41.48
30856;BME280;17570;0.000;0.000;2022-12-29T09:39:56;97853.66;;;16.73;40.83
30856;BME280;17570;0.000;0.000;2022-12-29T09:42:27;97844.53;;;16.87;40.14
30856;BME280;17570;0.000;0.000;2022-12-29T09:45:14;97840.66;;;17.01;39.03
30856;BME280;17570;0.000;0.000;2022-12-29T09:47:25;97837.59;;;17.15;38.55
30856;BME280;17570;0.000;0.000;2022-12-29T09:49:56;97826.91;;;17.36;37.77
30856;BME280;17570;0.000;0.000;2022-12-29T09:52:25;97826.83;;;17.55;37.47
30856;BME280;17570;0.000;0.000;2022-12-29T09:54:56;97829.40;;;17.75;38.35
30856;BME280;17570;0.000;0.000;2022-12-29T09:57:25;97819.48;;;17.96;37.93
30856;BME280;17570;0.000;0.000;2022-12-29T10:00:03;97814.17;;;18.42;36.49
30856;BME280;17570;0.000;0.000;2022-12-29T10:05:02;97799.50;;;18.93;36.71
30856;BME280;17570;0.000;0.000;2022-12-29T10:07:40;97797.19;;;19.16;36.95
30856;BME280;17570;0.000;0.000;2022-12-29T10:10:14;97790.10;;;19.42;36.55
30856;BME280;17570;0.000;0.000;2022-12-29T10:15:13;97791.30;;;19.82;40.40
30856;BME280;17570;0.000;0.000;2022-12-29T10:17:53;97791.02;;;20.01;41.49
30856;BME280;17570;0.000;0.000;2022-12-29T10:25:34;97792.10;;;20.49;39.57
30856;BME280;17570;0.000;0.000;2022-12-29T10:28:03;97784.86;;;20.76;38.80
30856;BME280;17570;0.000;0.000;2022-12-29T10:30:31;97775.91;;;21.01;37.66
30856;BME280;17570;0.000;0.000;2022-12-29T10:33:04;97767.59;;;21.29;38.04
30856;BME280;17570;0.000;0.000;2022-12-29T10:35:35;97765.25;;;21.50;37.99
30856;BME280;17570;0.000;0.000;2022-12-29T10:40:45;97762.69;;;21.96;36.99
30856;BME280;17570;0.000;0.000;2022-12-29T10:43:28;97757.00;;;22.15;36.91
30856;BME280;17570;0.000;0.000;2022-12-29T10:46:02;97761.11;;;22.41;37.03
30856;BME280;17570;0.000;0.000;2022-12-29T10:48:27;97751.67;;;22.61;37.04
30856;BME280;17570;0.000;0.000;2022-12-29T10:50:55;97748.12;;;22.92;36.38
30856;BME280;17570;0.000;0.000;2022-12-29T10:53:25;97748.95;;;23.22;36.31
30856;BME280;17570;0.000;0.000;2022-12-29T10:55:52;97752.78;;;23.49;35.87
30856;BME280;17570;0.000;0.000;2022-12-29T10:58:20;97748.59;;;23.70;36.08
30856;BME280;17570;0.000;0.000;2022-12-29T11:00:51;97745.26;;;23.82;35.92
30856;BME280;17570;0.000;0.000;2022-12-29T11:06:00;97731.24;;;24.46;35.83
30856;BME280;17570;0.000;0.000;2022-12-29T11:08:28;97733.48;;;24.71;36.02
30856;BME280;17570;0.000;0.000;2022-12-29T12:26:37;97685.55;;;22.76;30.32
30856;BME280;17570;0.000;0.000;2022-12-29T12:29:18;97678.46;;;23.72;26.84
30856;BME280;17570;0.000;0.000;2022-12-29T12:31:50;97683.13;;;24.84;25.85
30856;BME280;17570;0.000;0.000;2022-12-29T12:34:12;97669.69;;;25.27;25.42
30856;BME280;17570;0.000;0.000;2022-12-29T12:36:48;97670.98;;;25.37;25.35
30856;BME280;17570;0.000;0.000;2022-12-29T12:47:09;97687.22;;;25.14;26.28
30856;BME280;17570;0.000;0.000;2022-12-29T12:49:41;97686.09;;;25.02;26.05
30856;BME280;17570;0.000;0.000;2022-12-29T12:55:06;97683.47;;;24.74;26.51
30856;BME280;17570;0.000;0.000;2022-12-29T13:00:12;97684.69;;;24.43;27.17
30856;BME280;17570;0.000;0.000;2022-12-29T13:02:43;97684.14;;;24.33;27.69
30856;BME280;17570;0.000;0.000;2022-12-29T13:18:12;97692.67;;;23.64;28.88
30856;BME280;17570;0.000;0.000;2022-12-29T13:20:39;97688.72;;;23.60;28.45
30856;BME280;17570;0.000;0.000;2022-12-29T13:28:16;97689.77;;;23.30;29.25
30856;BME280;17570;0.000;0.000;2022-12-29T13:30:43;97691.13;;;23.26;29.15
30856;BME280;17570;0.000;0.000;2022-12-29T13:33:21;97697.64;;;23.23;28.84
30856;BME280;17570;0.000;0.000;2022-12-29T13:38:31;97700.38;;;23.00;29.10
30856;BME280;17570;0.000;0.000;2022-12-29T13:43:44;97701.05;;;22.79;29.66
30856;BME280;17570;0.000;0.000;2022-12-29T13:46:14;97703.49;;;22.66;30.13
30856;BME280;17570;0.000;0.000;2022-12-29T13:48:51;97703.69;;;22.64;30.08
30856;BME280;17570;0.000;0.000;2022-12-29T13:51:20;97706.05;;;22.59;29.89
30856;BME280;17570;0.000;0.000;2022-12-29T14:04:25;97711.57;;;22.12;30.83
30856;BME280;17570;0.000;0.000;2022-12-29T14:07:04;97714.55;;;22.32;31.41
30856;BME280;17570;0.000;0.000;2022-12-29T14:12:01;97716.42;;;22.46;34.08
30856;BME280;17570;0.000;0.000;2022-12-29T14:14:31;97722.66;;;22.53;34.52
30856;BME280;17570;0.000;0.000;2022-12-29T14:17:16;97720.60;;;22.40;34.41
30856;BME280;17570;0.000;0.000;2022-12-29T14:19:41;97728.78;;;22.31;34.11
30856;BME280;17570;0.000;0.000;2022-12-29T14:22:10;97723.97;;;22.11;33.40
30856;BME280;17570;0.000;0.000;2022-12-29T14:24:39;97731.81;;;21.97;33.38
30856;BME280;17570;0.000;0.000;2022-12-29T14:34:43;97724.29;;;21.54;34.04
30856;BME280;17570;0.000;0.000;2022-12-29T14:37:22;97733.58;;;21.42;34.19
30856;BME280;17570;0.000;0.000;2022-12-29T14:39:42;97731.62;;;21.28;34.48
30856;BME280;17570;0.000;0.000;2022-12-29T14:44:58;97736.63;;;21.06;35.04
30856;BME280;17570;0.000;0.000;2022-12-29T14:47:35;97734.03;;;20.90;34.70
30856;BME280;17570;0.000;0.000;2022-12-29T14:57:52;97746.41;;;20.41;35.52
30856;BME280;17570;0.000;0.000;2022-12-29T15:00:23;97744.58;;;20.33;35.84
30856;BME280;17570;0.000;0.000;2022-12-29T15:03:00;97748.86;;;20.18;35.65
30856;BME280;17570;0.000;0.000;2022-12-29T15:05:30;97760.37;;;20.08;35.59
30856;BME280;17570;0.000;0.000;2022-12-29T15:07:55;97760.19;;;19.94;36.04
30856;BME280;17570;0.000;0.000;2022-12-29T15:10:24;97764.58;;;19.77;37.15
30856;BME280;17570;0.000;0.000;2022-12-29T15:12:53;97764.23;;;19.64;36.50
30856;BME280;17570;0.000;0.000;2022-12-29T15:15:25;97763.17;;;19.56;36.66
30856;BME280;17570;0.000;0.000;2022-12-29T15:17:53;97758.20;;;19.53;36.83
30856;BME280;17570;0.000;0.000;2022-12-29T15:20:21;97757.98;;;19.38;36.92
30856;BME280;17570;0.000;0.000;2022-12-29T15:25:35;97765.02;;;19.30;36.83
30856;BME280;17570;0.000;0.000;2022-12-29T15:28:06;97769.86;;;19.08;37.58
30856;BME280;17570;0.000;0.000;2022-12-29T15:30:34;97758.97;;;19.03;37.54
30856;BME280;17570;0.000;0.000;2022-12-29T15:33:02;97770.78;;;18.99;38.51
30856;BME280;17570;0.000;0.000;2022-12-29T15:35:34;97767.11;;;18.92;38.23
30856;BME280;17570;0.000;0.000;2022-12-29T15:37:59;97768.56;;;18.86;38.07
30856;BME280;17570;0.000;0.000;2022-12-29T15:40:30;97773.75;;;18.78;38.23
30856;BME280;17570;0.000;0.000;2022-12-29T15:43:10;97772.05;;;18.69;38.21
30856;BME280;17570;0.000;0.000;2022-12-29T15:45:38;97768.20;;;18.64;38.10
30856;BME280;17570;0.000;0.000;2022-12-29T15:48:07;97771.38;;;18.49;38.28
30856;BME280;17570;0.000;0.000;2022-12-29T15:50:35;97772.52;;;18.47;38.61
30856;BME280;17570;0.000;0.000;2022-12-29T15:53:03;97771.98;;;18.43;38.47
30856;BME280;17570;0.000;0.000;2022-12-29T15:55:33;97774.91;;;18.40;38.51
30856;BME280;17570;0.000;0.000;2022-12-29T15:58:02;97785.88;;;18.35;38.57
30856;BME280;17570;0.000;0.000;2022-12-29T16:00:31;97784.02;;;18.28;38.51
30856;BME280;17570;0.000;0.000;2022-12-29T16:03:00;97788.87;;;18.23;38.38
30856;BME280;17570;0.000;0.000;2022-12-29T16:05:32;97789.26;;;18.10;38.30
30856;BME280;17570;0.000;0.000;2022-12-29T16:07:59;97786.98;;;17.97;38.49
30856;BME280;17570;0.000;0.000;2022-12-29T16:10:30;97784.26;;;17.89;38.46
30856;BME280;17570;0.000;0.000;2022-12-29T16:13:03;97788.15;;;17.85;38.25
30856;BME280;17570;0.000;0.000;2022-12-29T16:15:31;97789.57;;;17.79;38.56
30856;BME280;17570;0.000;0.000;2022-12-29T16:17:58;97792.22;;;17.70;38.62
30856;BME280;17570;0.000;0.000;2022-12-29T16:20:32;97785.92;;;17.63;38.51
30856;BME280;17570;0.000;0.000;2022-12-29T16:22:56;97784.55;;;17.58;38.88
30856;BME280;17570;0.000;0.000;2022-12-29T16:27:53;97786.52;;;17.47;38.75
30856;BME280;17570;0.000;0.000;2022-12-29T16:30:22;97794.28;;;17.39;38.55
30856;BME280;17570;0.000;0.000;2022-12-29T16:32:51;97792.09;;;17.34;38.78
30856;BME280;17570;0.000;0.000;2022-12-29T16:35:23;97793.81;;;17.25;39.05
30856;BME280;17570;0.000;0.000;2022-12-29T16:38:06;97790.36;;;17.15;38.64
30856;BME280;17570;0.000;0.000;2022-12-29T16:42:47;97794.57;;;16.98;38.88
30856;BME280;17570;0.000;0.000;2022-12-29T16:50:34;97794.59;;;16.89;39.08
30856;BME280;17570;0.000;0.000;2022-12-29T16:53:02;97798.48;;;16.75;39.31
30856;BME280;17570;0.000;0.000;2022-12-29T16:55:31;97793.23;;;16.75;39.10
30856;BME280;17570;0.000;0.000;2022-12-29T16:58:00;97799.42;;;16.74;39.00
30856;BME280;17570;0.000;0.000;2022-12-29T17:00:29;97798.75;;;16.72;39.25
30856;BME280;17570;0.000;0.000;2022-12-29T17:02:57;97801.37;;;16.72;39.10
30856;BME280;17570;0.000;0.000;2022-12-29T17:05:27;97804.23;;;16.59;39.12